sensor_id;sensor_type;location;lat;lon;timestamp;pressure;altitude;pressure_sealevel;temperature
7830;BMP180;3960;51.86894000;5.39848000;2023-04-15T00:00:16;100749.69;;;8.21
7830;BMP180;3960;51.86894000;5.39848000;2023-04-15T00:02:42;100849.72;;;8.85
7830;BMP180;3960;51.86894000;5.39848000;2023-04-15T00:05:08;100816.66;;;8.61
7830;BMP180;3960;51.86894000;5.39848000;2023-04-15T00:07:34;100852.03;;;8.83
7830;BMP180;3960;51.86894000;5.39848000;2023-04-15T00:10:02;100768.94;;;8.30
7830;BMP180;3960;51.86894000;5.39848000;2023-04-15T00:12:28;100763.56;;;8.23
7830;BMP180;3960;51.86894000;5.39848000;2023-04-15T00:14:53;100787.03;;;8.36
7830;BMP180;3960;51.86894000;5.39848000;2023-04-15T00:17:21;100833.59;;;8.65
7830;BMP180;3960;51.86894000;5.39848000;2023-04-15T00:19:46;100855.94;;;8.79
7830;BMP180;3960;51.86894000;5.39848000;2023-04-15T00:22:14;100810.13;;;8.51
7830;BMP180;3960;51.86894000;5.39848000;2023-04-15T00:24:40;100774.34;;;8.33
7830;BMP180;3960;51.86894000;5.39848000;2023-04-15T00:27:06;100785.13;;;8.33
7830;BMP180;3960;51.86894000;5.39848000;2023-04-15T00:29:31;100802.06;;;8.44
7830;BMP180;3960;51.86894000;5.39848000;2023-04-15T00:31:56;100809.75;;;8.49
7830;BMP180;3960;51.86894000;5.39848000;2023-04-15T00:34:22;100810.91;;;8.48
7830;BMP180;3960;51.86894000;5.39848000;2023-04-15T00:36:49;100757.41;;;8.15
7830;BMP180;3960;51.86894000;5.39848000;2023-04-15T00:39:15;100810.16;;;8.44
7830;BMP180;3960;51.86894000;5.39848000;2023-04-15T00:41:42;100731.63;;;7.97
7830;BMP180;3960;51.86894000;5.39848000;2023-04-15T00:44:07;100754.31;;;8.10
7830;BMP180;3960;51.86894000;5.39848000;2023-04-15T00:46:37;100781.66;;;8.26
7830;BMP180;3960;51.86894000;5.39848000;2023-04-15T00:49:04;100737.03;;;7.94
7830;BMP180;3960;51.86894000;5.39848000;2023-04-15T00:51:30;100756.25;;;8.02
7830;BMP180;3960;51.86894000;5.39848000;2023-04-15T00:54:19;100808.63;;;8.36
7830;BMP180;3960;51.86894000;5.39848000;2023-04-15T00:56:43;100759.75;;;7.99
7830;BMP180;3960;51.86894000;5.39848000;2023-04-15T00:59:09;100781.66;;;8.12
7830;BMP180;3960;51.86894000;5.39848000;2023-04-15T01:01:35;100798.63;;;8.26
7830;BMP180;3960;51.86894000;5.39848000;2023-04-15T01:04:01;100810.19;;;8.20
7830;BMP180;3960;51.86894000;5.39848000;2023-04-15T01:06:28;100815.19;;;8.25
7830;BMP180;3960;51.86894000;5.39848000;2023-04-15T01:08:54;100782.06;;;8.03
7830;BMP180;3960;51.86894000;5.39848000;2023-04-15T01:11:20;100749.38;;;7.81
7830;BMP180;3960;51.86894000;5.39848000;2023-04-15T01:13:49;100845.25;;;8.41
7830;BMP180;3960;51.86894000;5.39848000;2023-04-15T01:16:15;100816.00;;;8.18
7830;BMP180;3960;51.86894000;5.39848000;2023-04-15T01:18:41;100756.69;;;7.80
7830;BMP180;3960;51.86894000;5.39848000;2023-04-15T01:21:07;100763.22;;;7.79
7830;BMP180;3960;51.86894000;5.39848000;2023-04-15T01:23:35;100806.72;;;8.05
7830;BMP180;3960;51.86894000;5.39848000;2023-04-15T01:26:01;100812.88;;;8.09
7830;BMP180;3960;51.86894000;5.39848000;2023-04-15T01:28:27;100798.25;;;7.93
7830;BMP180;3960;51.86894000;5.39848000;2023-04-15T01:31:15;100817.91;;;8.00
7830;BMP180;3960;51.86894000;5.39848000;2023-04-15T01:33:42;100814.44;;;7.96
7830;BMP180;3960;51.86894000;5.39848000;2023-04-15T01:36:08;100750.94;;;7.54
7830;BMP180;3960;51.86894000;5.39848000;2023-04-15T01:38:35;100772.50;;;7.61
7830;BMP180;3960;51.86894000;5.39848000;2023-04-15T01:41:00;100844.09;;;8.07
7830;BMP180;3960;51.86894000;5.39848000;2023-04-15T01:43:26;100792.91;;;7.65
7830;BMP180;3960;51.86894000;5.39848000;2023-04-15T01:45:57;100859.13;;;8.08
7830;BMP180;3960;51.86894000;5.39848000;2023-04-15T01:48:25;100857.22;;;8.05
7830;BMP180;3960;51.86894000;5.39848000;2023-04-15T01:50:53;100819.47;;;7.81
7830;BMP180;3960;51.86894000;5.39848000;2023-04-15T01:53:22;100864.91;;;8.06
7830;BMP180;3960;51.86894000;5.39848000;2023-04-15T01:55:47;100766.69;;;7.41
7830;BMP180;3960;51.86894000;5.39848000;2023-04-15T01:58:13;100857.97;;;8.02
7830;BMP180;3960;51.86894000;5.39848000;2023-04-15T02:00:39;100863.75;;;8.00
7830;BMP180;3960;51.86894000;5.39848000;2023-04-15T02:03:04;100865.66;;;8.00
7830;BMP180;3960;51.86894000;5.39848000;2023-04-15T02:05:30;100865.66;;;7.96
7830;BMP180;3960;51.86894000;5.39848000;2023-04-15T02:07:56;100829.84;;;7.72
7830;BMP180;3960;51.86894000;5.39848000;2023-04-15T02:10:21;100781.69;;;7.39
7830;BMP180;3960;51.86894000;5.39848000;2023-04-15T02:12:47;100864.91;;;7.86
7830;BMP180;3960;51.86894000;5.39848000;2023-04-15T02:15:12;100840.63;;;7.65
7830;BMP180;3960;51.86894000;5.39848000;2023-04-15T02:17:38;100755.91;;;7.10
7830;BMP180;3960;51.86894000;5.39848000;2023-04-15T02:20:07;100871.84;;;7.83
7830;BMP180;3960;51.86894000;5.39848000;2023-04-15T02:22:33;100813.66;;;7.44
7830;BMP180;3960;51.86894000;5.39848000;2023-04-15T02:24:58;100802.50;;;7.38
7830;BMP180;3960;51.86894000;5.39848000;2023-04-15T02:27:24;100868.00;;;7.77
7830;BMP180;3960;51.86894000;5.39848000;2023-04-15T02:29:49;100870.28;;;7.79
7830;BMP180;3960;51.86894000;5.39848000;2023-04-15T02:32:17;100778.22;;;7.18
7830;BMP180;3960;51.86894000;5.39848000;2023-04-15T02:34:44;100877.97;;;7.77
7830;BMP180;3960;51.86894000;5.39848000;2023-04-15T02:37:13;100880.69;;;7.77
7830;BMP180;3960;51.86894000;5.39848000;2023-04-15T02:39:38;100822.50;;;7.37
7830;BMP180;3960;51.86894000;5.39848000;2023-04-15T02:42:04;100789.75;;;7.15
7830;BMP180;3960;51.86894000;5.39848000;2023-04-15T02:44:31;100884.56;;;7.76
7830;BMP180;3960;51.86894000;5.39848000;2023-04-15T02:46:57;100789.75;;;7.15
7830;BMP180;3960;51.86894000;5.39848000;2023-04-15T02:49:23;100815.56;;;7.29
7830;BMP180;3960;51.86894000;5.39848000;2023-04-15T02:51:51;100844.47;;;7.46
7830;BMP180;3960;51.86894000;5.39848000;2023-04-15T02:54:20;100890.69;;;7.73
7830;BMP180;3960;51.86894000;5.39848000;2023-04-15T02:56:47;100888.41;;;7.71
7830;BMP180;3960;51.86894000;5.39848000;2023-04-15T02:59:13;100828.63;;;7.31
7830;BMP180;3960;51.86894000;5.39848000;2023-04-15T03:01:38;100855.25;;;7.46
7830;BMP180;3960;51.86894000;5.39848000;2023-04-15T03:04:04;100859.84;;;7.49
7830;BMP180;3960;51.86894000;5.39848000;2023-04-15T03:06:29;100889.53;;;7.70
7830;BMP180;3960;51.86894000;5.39848000;2023-04-15T03:08:55;100826.34;;;7.29
7830;BMP180;3960;51.86894000;5.39848000;2023-04-15T03:11:21;100834.81;;;7.31
7830;BMP180;3960;51.86894000;5.39848000;2023-04-15T03:13:47;100797.81;;;7.08
7830;BMP180;3960;51.86894000;5.39848000;2023-04-15T03:16:12;100786.22;;;6.93
7830;BMP180;3960;51.86894000;5.39848000;2023-04-15T03:18:40;100829.78;;;7.23
7830;BMP180;3960;51.86894000;5.39848000;2023-04-15T03:21:05;100882.56;;;7.52
7830;BMP180;3960;51.86894000;5.39848000;2023-04-15T03:23:31;100847.47;;;7.27
7830;BMP180;3960;51.86894000;5.39848000;2023-04-15T03:25:56;100847.47;;;7.24
7830;BMP180;3960;51.86894000;5.39848000;2023-04-15T03:28:23;100835.91;;;7.13
7830;BMP180;3960;51.86894000;5.39848000;2023-04-15T03:30:51;100904.53;;;7.61
7830;BMP180;3960;51.86894000;5.39848000;2023-04-15T03:33:17;100839.38;;;7.10
7830;BMP180;3960;51.86894000;5.39848000;2023-04-15T03:35:42;100869.03;;;7.24
7830;BMP180;3960;51.86894000;5.39848000;2023-04-15T03:38:07;100896.41;;;7.43
7830;BMP180;3960;51.86894000;5.39848000;2023-04-15T03:40:37;100812.38;;;6.89
7830;BMP180;3960;51.86894000;5.39848000;2023-04-15T03:43:06;100869.00;;;7.21
7830;BMP180;3960;51.86894000;5.39848000;2023-04-15T03:45:31;100862.81;;;7.10
7830;BMP180;3960;51.86894000;5.39848000;2023-04-15T03:47:57;100819.28;;;6.87
7830;BMP180;3960;51.86894000;5.39848000;2023-04-15T03:50:22;100920.69;;;7.47
7830;BMP180;3960;51.86894000;5.39848000;2023-04-15T03:52:47;100887.50;;;7.22
7830;BMP180;3960;51.86894000;5.39848000;2023-04-15T03:55:13;100892.50;;;7.23
7830;BMP180;3960;51.86894000;5.39848000;2023-04-15T03:57:39;100936.44;;;7.48
7830;BMP180;3960;51.86894000;5.39848000;2023-04-15T04:00:05;100905.22;;;7.26
7830;BMP180;3960;51.86894000;5.39848000;2023-04-15T04:02:31;100928.72;;;7.33
7830;BMP180;3960;51.86894000;5.39848000;2023-04-15T04:04:56;100937.16;;;7.28
7830;BMP180;3960;51.86894000;5.39848000;2023-04-15T04:07:22;100937.91;;;7.25
7830;BMP180;3960;51.86894000;5.39848000;2023-04-15T04:09:48;100953.72;;;7.30
7830;BMP180;3960;51.86894000;5.39848000;2023-04-15T04:12:13;100966.41;;;7.29
7830;BMP180;3960;51.86894000;5.39848000;2023-04-15T04:14:38;100954.44;;;7.20
7830;BMP180;3960;51.86894000;5.39848000;2023-04-15T04:17:04;100944.00;;;7.08
7830;BMP180;3960;51.86894000;5.39848000;2023-04-15T04:19:29;100911.94;;;6.82
7830;BMP180;3960;51.86894000;5.39848000;2023-04-15T04:21:55;100945.09;;;7.00
7830;BMP180;3960;51.86894000;5.39848000;2023-04-15T04:24:20;100967.44;;;7.08
7830;BMP180;3960;51.86894000;5.39848000;2023-04-15T04:26:45;100952.41;;;6.96
7830;BMP180;3960;51.86894000;5.39848000;2023-04-15T04:29:13;100949.69;;;6.93
7830;BMP180;3960;51.86894000;5.39848000;2023-04-15T04:31:38;100948.50;;;6.83
7830;BMP180;3960;51.86894000;5.39848000;2023-04-15T04:34:04;100979.72;;;7.02
7830;BMP180;3960;51.86894000;5.39848000;2023-04-15T04:36:29;100923.38;;;6.65
7830;BMP180;3960;51.86894000;5.39848000;2023-04-15T04:38:54;100986.66;;;7.03
7830;BMP180;3960;51.86894000;5.39848000;2023-04-15T04:41:20;100960.41;;;6.86
7830;BMP180;3960;51.86894000;5.39848000;2023-04-15T04:43:45;100952.28;;;6.75
7830;BMP180;3960;51.86894000;5.39848000;2023-04-15T04:46:13;101014.38;;;7.03
7830;BMP180;3960;51.86894000;5.39848000;2023-04-15T04:48:39;101005.13;;;7.01
7830;BMP180;3960;51.86894000;5.39848000;2023-04-15T04:51:05;100947.16;;;6.56
7830;BMP180;3960;51.86894000;5.39848000;2023-04-15T04:53:31;100967.59;;;6.64
7830;BMP180;3960;51.86894000;5.39848000;2023-04-15T04:55:59;101030.09;;;6.98
7830;BMP180;3960;51.86894000;5.39848000;2023-04-15T04:58:25;100979.16;;;6.68
7830;BMP180;3960;51.86894000;5.39848000;2023-04-15T05:00:51;101006.94;;;6.86
7830;BMP180;3960;51.86894000;5.39848000;2023-04-15T05:03:19;101031.66;;;6.99
7830;BMP180;3960;51.86894000;5.39848000;2023-04-15T05:05:44;100983.34;;;6.66
7830;BMP180;3960;51.86894000;5.39848000;2023-04-15T05:08:10;100931.97;;;6.31
7830;BMP180;3960;51.86894000;5.39848000;2023-04-15T05:10:35;100989.91;;;6.68
7830;BMP180;3960;51.86894000;5.39848000;2023-04-15T05:13:01;101026.97;;;6.89
7830;BMP180;3960;51.86894000;5.39848000;2023-04-15T05:15:26;101009.97;;;6.78
7830;BMP180;3960;51.86894000;5.39848000;2023-04-15T05:17:52;100954.69;;;6.37
7830;BMP180;3960;51.86894000;5.39848000;2023-04-15T05:20:17;101047.78;;;6.95
7830;BMP180;3960;51.86894000;5.39848000;2023-04-15T05:22:43;101063.19;;;7.02
7830;BMP180;3960;51.86894000;5.39848000;2023-04-15T05:25:14;101030.38;;;6.82
7830;BMP180;3960;51.86894000;5.39848000;2023-04-15T05:27:39;101033.03;;;6.75
7830;BMP180;3960;51.86894000;5.39848000;2023-04-15T05:30:07;100982.44;;;6.45
7830;BMP180;3960;51.86894000;5.39848000;2023-04-15T05:32:33;100975.00;;;6.31
7830;BMP180;3960;51.86894000;5.39848000;2023-04-15T05:35:01;100989.78;;;6.51
7830;BMP180;3960;51.86894000;5.39848000;2023-04-15T05:37:27;101074.31;;;6.93
7830;BMP180;3960;51.86894000;5.39848000;2023-04-15T05:39:52;101033.72;;;6.69
7830;BMP180;3960;51.86894000;5.39848000;2023-04-15T05:42:20;100995.84;;;6.41
7830;BMP180;3960;51.86894000;5.39848000;2023-04-15T05:44:45;101102.50;;;7.10
7830;BMP180;3960;51.86894000;5.39848000;2023-04-15T05:47:13;101074.28;;;6.90
7830;BMP180;3960;51.86894000;5.39848000;2023-04-15T05:49:41;101079.66;;;6.90
7830;BMP180;3960;51.86894000;5.39848000;2023-04-15T05:52:07;101015.09;;;6.47
7830;BMP180;3960;51.86894000;5.39848000;2023-04-15T05:54:32;101122.94;;;7.14
7830;BMP180;3960;51.86894000;5.39848000;2023-04-15T05:56:58;101123.38;;;7.20
7830;BMP180;3960;51.86894000;5.39848000;2023-04-15T05:59:23;101111.69;;;7.05
7830;BMP180;3960;51.86894000;5.39848000;2023-04-15T06:01:49;101012.38;;;6.43
7830;BMP180;3960;51.86894000;5.39848000;2023-04-15T06:04:16;101091.94;;;6.87
7830;BMP180;3960;51.86894000;5.39848000;2023-04-15T06:06:41;101097.78;;;6.93
7830;BMP180;3960;51.86894000;5.39848000;2023-04-15T06:09:07;101061.09;;;6.74
7830;BMP180;3960;51.86894000;5.39848000;2023-04-15T06:11:32;101145.41;;;7.35
7830;BMP180;3960;51.86894000;5.39848000;2023-04-15T06:14:00;101157.81;;;7.47
7830;BMP180;3960;51.86894000;5.39848000;2023-04-15T06:16:26;101163.97;;;7.51
7830;BMP180;3960;51.86894000;5.39848000;2023-04-15T06:18:54;101127.38;;;7.43
7830;BMP180;3960;51.86894000;5.39848000;2023-04-15T06:21:20;101074.13;;;7.22
7830;BMP180;3960;51.86894000;5.39848000;2023-04-15T06:23:58;101109.09;;;7.80
7830;BMP180;3960;51.86894000;5.39848000;2023-04-15T06:26:23;101077.09;;;7.75
7830;BMP180;3960;51.86894000;5.39848000;2023-04-15T06:28:55;101162.94;;;8.40
7830;BMP180;3960;51.86894000;5.39848000;2023-04-15T06:31:31;101143.59;;;8.31
7830;BMP180;3960;51.86894000;5.39848000;2023-04-15T06:34:02;101142.47;;;8.39
7830;BMP180;3960;51.86894000;5.39848000;2023-04-15T06:36:30;101190.81;;;8.93
7830;BMP180;3960;51.86894000;5.39848000;2023-04-15T06:39:01;101167.28;;;9.04
7830;BMP180;3960;51.86894000;5.39848000;2023-04-15T06:41:32;101125.19;;;9.13
7830;BMP180;3960;51.86894000;5.39848000;2023-04-15T06:47:06;101198.44;;;10.13
7830;BMP180;3960;51.86894000;5.39848000;2023-04-15T06:49:31;101156.38;;;9.73
7830;BMP180;3960;51.86894000;5.39848000;2023-04-15T06:51:57;101215.44;;;10.13
7830;BMP180;3960;51.86894000;5.39848000;2023-04-15T06:54:37;101155.63;;;9.73
7830;BMP180;3960;51.86894000;5.39848000;2023-04-15T06:57:05;101157.16;;;9.74
7830;BMP180;3960;51.86894000;5.39848000;2023-04-15T06:59:31;101226.22;;;10.23
7830;BMP180;3960;51.86894000;5.39848000;2023-04-15T07:02:02;101230.44;;;10.38
7830;BMP180;3960;51.86894000;5.39848000;2023-04-15T07:04:33;101237.75;;;10.45
7830;BMP180;3960;51.86894000;5.39848000;2023-04-15T07:07:15;101232.63;;;10.64
7830;BMP180;3960;51.86894000;5.39848000;2023-04-15T07:09:44;101158.06;;;10.42
7830;BMP180;3960;51.86894000;5.39848000;2023-04-15T07:12:47;101182.88;;;10.98
7830;BMP180;3960;51.86894000;5.39848000;2023-04-15T07:15:27;101162.22;;;11.15
7830;BMP180;3960;51.86894000;5.39848000;2023-04-15T07:18:02;101263.84;;;12.28
7830;BMP180;3960;51.86894000;5.39848000;2023-04-15T07:20:33;101193.97;;;11.98
7830;BMP180;3960;51.86894000;5.39848000;2023-04-15T07:22:58;101216.72;;;12.44
7830;BMP180;3960;51.86894000;5.39848000;2023-04-15T07:25:23;101235.41;;;12.69
7830;BMP180;3960;51.86894000;5.39848000;2023-04-15T07:28:01;101207.38;;;12.75
7830;BMP180;3960;51.86894000;5.39848000;2023-04-15T07:30:27;101242.00;;;13.24
7830;BMP180;3960;51.86894000;5.39848000;2023-04-15T07:32:53;101201.41;;;13.13
7830;BMP180;3960;51.86894000;5.39848000;2023-04-15T07:35:19;101276.06;;;13.81
7830;BMP180;3960;51.86894000;5.39848000;2023-04-15T07:37:48;101243.44;;;13.78
7830;BMP180;3960;51.86894000;5.39848000;2023-04-15T07:40:14;101206.53;;;13.77
7830;BMP180;3960;51.86894000;5.39848000;2023-04-15T07:42:40;101290.94;;;14.42
7830;BMP180;3960;51.86894000;5.39848000;2023-04-15T07:45:06;101200.31;;;13.76
7830;BMP180;3960;51.86894000;5.39848000;2023-04-15T07:47:32;101297.84;;;14.46
7830;BMP180;3960;51.86894000;5.39848000;2023-04-15T07:50:01;101256.34;;;14.19
7830;BMP180;3960;51.86894000;5.39848000;2023-04-15T07:56:17;101305.16;;;14.88
7830;BMP180;3960;51.86894000;5.39848000;2023-04-15T08:30:59;101341.94;;;17.27
7830;BMP180;3960;51.86894000;5.39848000;2023-04-15T08:33:25;101345.22;;;17.47
7830;BMP180;3960;51.86894000;5.39848000;2023-04-15T08:35:50;101339.31;;;17.49
7830;BMP180;3960;51.86894000;5.39848000;2023-04-15T08:38:16;101345.88;;;17.51
7830;BMP180;3960;51.86894000;5.39848000;2023-04-15T08:40:44;101341.38;;;17.32
7830;BMP180;3960;51.86894000;5.39848000;2023-04-15T08:43:12;101358.16;;;17.34
7830;BMP180;3960;51.86894000;5.39848000;2023-04-15T08:45:41;101366.59;;;17.27
7830;BMP180;3960;51.86894000;5.39848000;2023-04-15T08:48:17;101365.50;;;16.96
7830;BMP180;3960;51.86894000;5.39848000;2023-04-15T08:50:43;101368.63;;;16.82
7830;BMP180;3960;51.86894000;5.39848000;2023-04-15T08:53:10;101373.19;;;16.73
7830;BMP180;3960;51.86894000;5.39848000;2023-04-15T08:55:41;101372.44;;;16.73
7830;BMP180;3960;51.86894000;5.39848000;2023-04-15T08:58:09;101364.94;;;16.89
7830;BMP180;3960;51.86894000;5.39848000;2023-04-15T09:00:36;101374.69;;;16.90
7830;BMP180;3960;51.86894000;5.39848000;2023-04-15T09:03:03;101400.88;;;17.03
7830;BMP180;3960;51.86894000;5.39848000;2023-04-15T09:05:34;101395.94;;;16.98
7830;BMP180;3960;51.86894000;5.39848000;2023-04-15T09:08:00;101397.75;;;16.89
7830;BMP180;3960;51.86894000;5.39848000;2023-04-15T09:10:26;101404.44;;;16.88
7830;BMP180;3960;51.86894000;5.39848000;2023-04-15T09:12:52;101396.81;;;16.67
7830;BMP180;3960;51.86894000;5.39848000;2023-04-15T09:15:17;101408.56;;;16.52
7830;BMP180;3960;51.86894000;5.39848000;2023-04-15T09:17:43;101403.13;;;16.36
7830;BMP180;3960;51.86894000;5.39848000;2023-04-15T09:20:11;101411.97;;;16.56
7830;BMP180;3960;51.86894000;5.39848000;2023-04-15T09:22:40;101414.38;;;16.54
7830;BMP180;3960;51.86894000;5.39848000;2023-04-15T09:27:57;101421.38;;;16.07
7830;BMP180;3960;51.86894000;5.39848000;2023-04-15T09:30:23;101429.91;;;16.25
7830;BMP180;3960;51.86894000;5.39848000;2023-04-15T09:32:59;101429.22;;;16.53
7830;BMP180;3960;51.86894000;5.39848000;2023-04-15T09:35:26;101428.63;;;16.89
7830;BMP180;3960;51.86894000;5.39848000;2023-04-15T09:37:52;101429.31;;;17.06
7830;BMP180;3960;51.86894000;5.39848000;2023-04-15T09:40:50;101438.31;;;17.35
7830;BMP180;3960;51.86894000;5.39848000;2023-04-15T09:43:15;101418.59;;;17.27
7830;BMP180;3960;51.86894000;5.39848000;2023-04-15T09:45:52;101446.09;;;17.49
7830;BMP180;3960;51.86894000;5.39848000;2023-04-15T09:48:22;101437.31;;;17.41
7830;BMP180;3960;51.86894000;5.39848000;2023-04-15T09:50:49;101437.75;;;17.27
7830;BMP180;3960;51.86894000;5.39848000;2023-04-15T09:53:19;101444.59;;;17.19
7830;BMP180;3960;51.86894000;5.39848000;2023-04-15T09:55:50;101437.69;;;17.15
7830;BMP180;3960;51.86894000;5.39848000;2023-04-15T09:58:30;101451.16;;;17.22
7830;BMP180;3960;51.86894000;5.39848000;2023-04-15T10:00:57;101452.53;;;17.42
7830;BMP180;3960;51.86894000;5.39848000;2023-04-15T10:03:27;101454.19;;;17.40
7830;BMP180;3960;51.86894000;5.39848000;2023-04-15T10:05:54;101452.34;;;17.49
7830;BMP180;3960;51.86894000;5.39848000;2023-04-15T10:08:22;101460.34;;;17.56
7830;BMP180;3960;51.86894000;5.39848000;2023-04-15T10:10:49;101448.09;;;17.60
7830;BMP180;3960;51.86894000;5.39848000;2023-04-15T10:13:18;101464.19;;;17.58
7830;BMP180;3960;51.86894000;5.39848000;2023-04-15T10:15:49;101463.88;;;17.69
7830;BMP180;3960;51.86894000;5.39848000;2023-04-15T10:18:16;101465.53;;;17.91
7830;BMP180;3960;51.86894000;5.39848000;2023-04-15T10:20:43;101460.69;;;17.83
7830;BMP180;3960;51.86894000;5.39848000;2023-04-15T10:23:09;101472.31;;;17.87
7830;BMP180;3960;51.86894000;5.39848000;2023-04-15T10:25:36;101455.44;;;17.76
7830;BMP180;3960;51.86894000;5.39848000;2023-04-15T10:28:02;101467.16;;;17.89
7830;BMP180;3960;51.86894000;5.39848000;2023-04-15T10:30:27;101470.44;;;17.96
7830;BMP180;3960;51.86894000;5.39848000;2023-04-15T10:32:53;101480.56;;;18.24
7830;BMP180;3960;51.86894000;5.39848000;2023-04-15T10:35:20;101481.75;;;18.35
7830;BMP180;3960;51.86894000;5.39848000;2023-04-15T10:37:46;101482.50;;;18.48
7830;BMP180;3960;51.86894000;5.39848000;2023-04-15T10:40:30;101497.63;;;18.40
7830;BMP180;3960;51.86894000;5.39848000;2023-04-15T10:43:02;101473.41;;;18.02
7830;BMP180;3960;51.86894000;5.39848000;2023-04-15T10:45:32;101481.75;;;17.98
7830;BMP180;3960;51.86894000;5.39848000;2023-04-15T10:48:01;101478.56;;;18.00
7830;BMP180;3960;51.86894000;5.39848000;2023-04-15T10:50:27;101483.41;;;18.08
7830;BMP180;3960;51.86894000;5.39848000;2023-04-15T10:52:54;101483.16;;;18.03
7830;BMP180;3960;51.86894000;5.39848000;2023-04-15T10:55:22;101491.41;;;18.40
7830;BMP180;3960;51.86894000;5.39848000;2023-04-15T10:57:52;101493.06;;;18.71
7830;BMP180;3960;51.86894000;5.39848000;2023-04-15T11:00:19;101503.28;;;18.71
7830;BMP180;3960;51.86894000;5.39848000;2023-04-15T11:05:21;101501.69;;;18.48
7830;BMP180;3960;51.86894000;5.39848000;2023-04-15T11:07:54;101505.41;;;18.54
7830;BMP180;3960;51.86894000;5.39848000;2023-04-15T11:12:46;101499.09;;;18.79
7830;BMP180;3960;51.86894000;5.39848000;2023-04-15T11:15:44;101495.34;;;18.14
7830;BMP180;3960;51.86894000;5.39848000;2023-04-15T11:18:12;101486.16;;;18.21
7830;BMP180;3960;51.86894000;5.39848000;2023-04-15T11:20:40;101498.19;;;18.23
7830;BMP180;3960;51.86894000;5.39848000;2023-04-15T11:23:05;101510.03;;;18.45
7830;BMP180;3960;51.86894000;5.39848000;2023-04-15T11:25:32;101506.31;;;18.39
7830;BMP180;3960;51.86894000;5.39848000;2023-04-15T11:27:59;101497.22;;;18.30
7830;BMP180;3960;51.86894000;5.39848000;2023-04-15T11:30:30;101510.91;;;18.42
7830;BMP180;3960;51.86894000;5.39848000;2023-04-15T11:33:02;101512.66;;;18.48
7830;BMP180;3960;51.86894000;5.39848000;2023-04-15T11:35:28;101515.75;;;18.50
7830;BMP180;3960;51.86894000;5.39848000;2023-04-15T11:37:54;101523.41;;;18.55
7830;BMP180;3960;51.86894000;5.39848000;2023-04-15T11:40:28;101519.28;;;18.72
7830;BMP180;3960;51.86894000;5.39848000;2023-04-15T11:43:14;101524.13;;;18.81
7830;BMP180;3960;51.86894000;5.39848000;2023-04-15T11:45:57;101536.31;;;18.80
7830;BMP180;3960;51.86894000;5.39848000;2023-04-15T11:48:28;101524.38;;;18.61
7830;BMP180;3960;51.86894000;5.39848000;2023-04-15T11:50:58;101530.13;;;18.88
7830;BMP180;3960;51.86894000;5.39848000;2023-04-15T11:53:25;101532.09;;;18.54
7830;BMP180;3960;51.86894000;5.39848000;2023-04-15T11:55:59;101528.44;;;18.57
7830;BMP180;3960;51.86894000;5.39848000;2023-04-15T11:58:25;101533.13;;;18.69
7830;BMP180;3960;51.86894000;5.39848000;2023-04-15T12:00:53;101528.63;;;18.75
7830;BMP180;3960;51.86894000;5.39848000;2023-04-15T12:03:29;101545.47;;;18.64
7830;BMP180;3960;51.86894000;5.39848000;2023-04-15T12:09:00;101534.97;;;18.84
7830;BMP180;3960;51.86894000;5.39848000;2023-04-15T12:13:53;101538.31;;;19.34
7830;BMP180;3960;51.86894000;5.39848000;2023-04-15T12:16:19;101544.09;;;19.49
7830;BMP180;3960;51.86894000;5.39848000;2023-04-15T12:18:45;101552.38;;;19.02
7830;BMP180;3960;51.86894000;5.39848000;2023-04-15T12:21:11;101549.78;;;19.20
7830;BMP180;3960;51.86894000;5.39848000;2023-04-15T12:23:56;101546.97;;;19.45
7830;BMP180;3960;51.86894000;5.39848000;2023-04-15T12:26:33;101548.91;;;19.66
7830;BMP180;3960;51.86894000;5.39848000;2023-04-15T12:29:06;101556.41;;;19.66
7830;BMP180;3960;51.86894000;5.39848000;2023-04-15T12:31:35;101554.72;;;19.68
7830;BMP180;3960;51.86894000;5.39848000;2023-04-15T12:34:06;101564.25;;;19.97
7830;BMP180;3960;51.86894000;5.39848000;2023-04-15T12:36:32;101559.72;;;20.43
7830;BMP180;3960;51.86894000;5.39848000;2023-04-15T12:39:02;101564.56;;;19.57
7830;BMP180;3960;51.86894000;5.39848000;2023-04-15T12:41:28;101575.03;;;18.82
7830;BMP180;3960;51.86894000;5.39848000;2023-04-15T12:43:53;101564.56;;;18.31
7830;BMP180;3960;51.86894000;5.39848000;2023-04-15T12:46:18;101573.69;;;17.87
7830;BMP180;3960;51.86894000;5.39848000;2023-04-15T12:48:44;101577.94;;;18.53
7830;BMP180;3960;51.86894000;5.39848000;2023-04-15T12:51:10;101586.63;;;19.10
7830;BMP180;3960;51.86894000;5.39848000;2023-04-15T12:53:35;101582.22;;;19.47
7830;BMP180;3960;51.86894000;5.39848000;2023-04-15T12:56:01;101581.66;;;19.18
7830;BMP180;3960;51.86894000;5.39848000;2023-04-15T12:58:26;101593.38;;;18.85
7830;BMP180;3960;51.86894000;5.39848000;2023-04-15T13:00:51;101601.13;;;19.11
7830;BMP180;3960;51.86894000;5.39848000;2023-04-15T13:03:17;101599.50;;;19.13
7830;BMP180;3960;51.86894000;5.39848000;2023-04-15T13:05:42;101593.72;;;18.37
7830;BMP180;3960;51.86894000;5.39848000;2023-04-15T13:08:07;101613.97;;;18.02
7830;BMP180;3960;51.86894000;5.39848000;2023-04-15T13:10:34;101614.31;;;18.17
7830;BMP180;3960;51.86894000;5.39848000;2023-04-15T13:13:01;101614.34;;;18.29
7830;BMP180;3960;51.86894000;5.39848000;2023-04-15T13:15:26;101611.88;;;18.06
7830;BMP180;3960;51.86894000;5.39848000;2023-04-15T13:17:51;101624.88;;;17.49
7830;BMP180;3960;51.86894000;5.39848000;2023-04-15T13:20:16;101621.31;;;17.04
7830;BMP180;3960;51.86894000;5.39848000;2023-04-15T13:22:42;101625.25;;;17.35
7830;BMP180;3960;51.86894000;5.39848000;2023-04-15T13:25:07;101625.31;;;17.76
7830;BMP180;3960;51.86894000;5.39848000;2023-04-15T13:27:33;101636.00;;;17.42
7830;BMP180;3960;51.86894000;5.39848000;2023-04-15T13:29:59;101644.72;;;17.53